sensor_id;sensor_type;location;lat;lon;timestamp;pressure;altitude;pressure_sealevel;temperature;humidity
4981;BME280;2507;50.392;7.482;2023-11-21T00:01:55;100102.72;;;11.25;84.74
4981;BME280;2507;50.392;7.482;2023-11-21T00:04:22;100110.84;;;11.22;85.28
4981;BME280;2507;50.392;7.482;2023-11-21T00:06:47;100106.41;;;11.34;85.43
4981;BME280;2507;50.392;7.482;2023-11-21T00:09:13;100107.28;;;11.44;84.54
4981;BME280;2507;50.392;7.482;2023-11-21T00:11:40;100107.06;;;11.47;84.63
4981;BME280;2507;50.392;7.482;2023-11-21T00:14:06;100108.53;;;11.61;84.10
4981;BME280;2507;50.392;7.482;2023-11-21T00:16:31;100109.47;;;11.71;83.22
4981;BME280;2507;50.392;7.482;2023-11-21T00:18:56;100104.97;;;11.62;82.74
4981;BME280;2507;50.392;7.482;2023-11-21T00:21:21;100116.41;;;11.72;82.76
4981;BME280;2507;50.392;7.482;2023-11-21T00:23:47;100114.03;;;11.69;82.78
4981;BME280;2507;50.392;7.482;2023-11-21T00:26:12;100116.97;;;11.75;82.76
4981;BME280;2507;50.392;7.482;2023-11-21T00:28:37;100113.56;;;11.84;82.39
4981;BME280;2507;50.392;7.482;2023-11-21T00:31:03;100113.19;;;11.89;81.99
4981;BME280;2507;50.392;7.482;2023-11-21T00:33:29;100118.25;;;11.81;81.79
4981;BME280;2507;50.392;7.482;2023-11-21T00:35:54;100123.84;;;11.67;82.13
4981;BME280;2507;50.392;7.482;2023-11-21T00:38:19;100128.72;;;11.60;82.35
4981;BME280;2507;50.392;7.482;2023-11-21T00:40:45;100132.81;;;11.53;82.81
4981;BME280;2507;50.392;7.482;2023-11-21T00:43:10;100129.50;;;11.40;83.94
4981;BME280;2507;50.392;7.482;2023-11-21T00:45:36;100135.25;;;11.45;84.20
4981;BME280;2507;50.392;7.482;2023-11-21T00:48:02;100132.38;;;11.48;83.74
4981;BME280;2507;50.392;7.482;2023-11-21T00:50:27;100135.47;;;11.42;83.21
4981;BME280;2507;50.392;7.482;2023-11-21T00:52:53;100138.28;;;11.29;84.30
4981;BME280;2507;50.392;7.482;2023-11-21T00:55:19;100128.47;;;11.31;84.54
4981;BME280;2507;50.392;7.482;2023-11-21T00:57:44;100135.03;;;11.37;84.72
4981;BME280;2507;50.392;7.482;2023-11-21T01:00:10;100141.03;;;11.60;84.10
4981;BME280;2507;50.392;7.482;2023-11-21T01:02:53;100145.00;;;11.65;82.95
4981;BME280;2507;50.392;7.482;2023-11-21T01:05:18;100149.50;;;11.63;82.94
4981;BME280;2507;50.392;7.482;2023-11-21T01:07:44;100156.66;;;11.72;82.95
4981;BME280;2507;50.392;7.482;2023-11-21T01:10:10;100190.56;;;11.75;82.25
4981;BME280;2507;50.392;7.482;2023-11-21T01:12:36;100156.91;;;11.58;82.80
4981;BME280;2507;50.392;7.482;2023-11-21T01:15:03;100168.81;;;11.42;83.90
4981;BME280;2507;50.392;7.482;2023-11-21T01:17:29;100175.19;;;11.28;84.31
4981;BME280;2507;50.392;7.482;2023-11-21T01:19:54;100174.75;;;11.12;85.73
4981;BME280;2507;50.392;7.482;2023-11-21T01:22:19;100175.72;;;11.00;86.87
4981;BME280;2507;50.392;7.482;2023-11-21T01:24:51;100172.72;;;11.04;87.31
4981;BME280;2507;50.392;7.482;2023-11-21T01:27:16;100172.00;;;11.13;86.31
4981;BME280;2507;50.392;7.482;2023-11-21T01:29:42;100180.69;;;11.25;85.86
4981;BME280;2507;50.392;7.482;2023-11-21T01:32:07;100178.84;;;11.37;85.36
4981;BME280;2507;50.392;7.482;2023-11-21T01:34:33;100185.75;;;11.49;84.79
4981;BME280;2507;50.392;7.482;2023-11-21T01:36:58;100188.25;;;11.50;84.20
4981;BME280;2507;50.392;7.482;2023-11-21T01:39:26;100191.88;;;11.38;83.82
4981;BME280;2507;50.392;7.482;2023-11-21T01:41:51;100196.78;;;11.31;84.29
4981;BME280;2507;50.392;7.482;2023-11-21T01:44:17;100195.84;;;11.32;85.64
4981;BME280;2507;50.392;7.482;2023-11-21T01:46:44;100194.09;;;11.65;84.35
4981;BME280;2507;50.392;7.482;2023-11-21T01:49:10;100196.22;;;11.71;83.07
4981;BME280;2507;50.392;7.482;2023-11-21T01:51:38;100190.47;;;11.66;82.40
4981;BME280;2507;50.392;7.482;2023-11-21T01:54:04;100191.78;;;11.60;82.49
4981;BME280;2507;50.392;7.482;2023-11-21T01:56:30;100191.78;;;11.60;82.41
4981;BME280;2507;50.392;7.482;2023-11-21T01:58:57;100201.53;;;11.49;82.62
4981;BME280;2507;50.392;7.482;2023-11-21T02:01:22;100206.78;;;11.49;82.24
4981;BME280;2507;50.392;7.482;2023-11-21T02:03:47;100202.25;;;11.40;82.58
4981;BME280;2507;50.392;7.482;2023-11-21T02:06:13;100206.94;;;11.36;82.47
4981;BME280;2507;50.392;7.482;2023-11-21T02:08:38;100202.28;;;11.28;82.78
4981;BME280;2507;50.392;7.482;2023-11-21T02:11:07;100203.47;;;11.24;82.99
4981;BME280;2507;50.392;7.482;2023-11-21T02:13:34;100202.78;;;11.11;83.31
4981;BME280;2507;50.392;7.482;2023-11-21T02:15:59;100209.94;;;10.98;84.13
4981;BME280;2507;50.392;7.482;2023-11-21T02:18:25;100204.59;;;11.00;84.74
4981;BME280;2507;50.392;7.482;2023-11-21T02:20:50;100213.28;;;11.00;84.70
4981;BME280;2507;50.392;7.482;2023-11-21T02:23:16;100214.28;;;10.99;84.74
4981;BME280;2507;50.392;7.482;2023-11-21T02:25:41;100213.06;;;11.03;84.50
4981;BME280;2507;50.392;7.482;2023-11-21T02:28:07;100217.97;;;10.97;84.60
4981;BME280;2507;50.392;7.482;2023-11-21T02:30:33;100225.13;;;10.95;84.72
4981;BME280;2507;50.392;7.482;2023-11-21T02:32:58;100220.47;;;10.98;84.70
4981;BME280;2507;50.392;7.482;2023-11-21T02:35:23;100233.13;;;11.04;83.89
4981;BME280;2507;50.392;7.482;2023-11-21T02:37:51;100219.38;;;11.01;84.36
4981;BME280;2507;50.392;7.482;2023-11-21T02:40:16;100225.00;;;10.96;84.46
4981;BME280;2507;50.392;7.482;2023-11-21T02:42:50;100229.91;;;11.01;84.35
4981;BME280;2507;50.392;7.482;2023-11-21T02:45:20;100227.00;;;11.15;84.53
4981;BME280;2507;50.392;7.482;2023-11-21T02:47:49;100223.78;;;11.22;83.31
4981;BME280;2507;50.392;7.482;2023-11-21T02:50:14;100231.31;;;11.16;82.65
4981;BME280;2507;50.392;7.482;2023-11-21T02:52:40;100230.94;;;11.20;82.71
4981;BME280;2507;50.392;7.482;2023-11-21T02:55:06;100227.59;;;11.07;82.53
4981;BME280;2507;50.392;7.482;2023-11-21T02:57:32;100232.28;;;10.93;83.77
4981;BME280;2507;50.392;7.482;2023-11-21T02:59:58;100251.03;;;10.88;83.83
4981;BME280;2507;50.392;7.482;2023-11-21T03:02:25;100235.75;;;10.82;84.10
4981;BME280;2507;50.392;7.482;2023-11-21T03:04:50;100243.50;;;10.84;84.53
4981;BME280;2507;50.392;7.482;2023-11-21T03:07:16;100250.03;;;10.78;84.75
4981;BME280;2507;50.392;7.482;2023-11-21T03:09:41;100247.06;;;10.72;85.21
4981;BME280;2507;50.392;7.482;2023-11-21T03:12:08;100255.19;;;10.69;85.36
4981;BME280;2507;50.392;7.482;2023-11-21T03:14:34;100248.50;;;10.76;85.91
4981;BME280;2507;50.392;7.482;2023-11-21T03:16:59;100249.25;;;10.89;85.06
4981;BME280;2507;50.392;7.482;2023-11-21T03:19:24;100255.56;;;10.97;84.44
4981;BME280;2507;50.392;7.482;2023-11-21T03:21:49;100253.16;;;11.05;84.45
4981;BME280;2507;50.392;7.482;2023-11-21T03:24:15;100255.91;;;11.15;83.49
4981;BME280;2507;50.392;7.482;2023-11-21T03:26:44;100257.06;;;11.22;83.15
4981;BME280;2507;50.392;7.482;2023-11-21T03:29:09;100257.91;;;11.22;82.82
4981;BME280;2507;50.392;7.482;2023-11-21T03:31:35;100259.13;;;11.18;82.36
4981;BME280;2507;50.392;7.482;2023-11-21T03:34:01;100266.06;;;11.19;82.72
4981;BME280;2507;50.392;7.482;2023-11-21T03:36:26;100277.28;;;11.10;82.40
4981;BME280;2507;50.392;7.482;2023-11-21T03:38:51;100276.69;;;11.07;83.00
4981;BME280;2507;50.392;7.482;2023-11-21T03:41:17;100275.25;;;11.14;82.93
4981;BME280;2507;50.392;7.482;2023-11-21T03:43:42;100279.66;;;11.24;81.95
4981;BME280;2507;50.392;7.482;2023-11-21T03:46:07;100283.47;;;11.20;82.14
4981;BME280;2507;50.392;7.482;2023-11-21T03:48:32;100276.78;;;11.16;82.30
4981;BME280;2507;50.392;7.482;2023-11-21T03:50:58;100278.94;;;11.00;82.87
4981;BME280;2507;50.392;7.482;2023-11-21T03:53:23;100286.94;;;10.99;83.49
4981;BME280;2507;50.392;7.482;2023-11-21T03:55:49;100289.56;;;10.88;84.18
4981;BME280;2507;50.392;7.482;2023-11-21T03:58:15;100289.91;;;10.83;84.92
4981;BME280;2507;50.392;7.482;2023-11-21T04:00:40;100290.53;;;10.87;84.87
4981;BME280;2507;50.392;7.482;2023-11-21T04:03:05;100286.72;;;10.91;84.85
4981;BME280;2507;50.392;7.482;2023-11-21T04:05:30;100297.44;;;10.99;84.69
4981;BME280;2507;50.392;7.482;2023-11-21T04:07:56;100308.53;;;11.02;84.18
4981;BME280;2507;50.392;7.482;2023-11-21T04:10:21;100304.25;;;11.01;84.25
4981;BME280;2507;50.392;7.482;2023-11-21T04:12:47;100303.75;;;10.96;84.24
4981;BME280;2507;50.392;7.482;2023-11-21T04:15:13;100304.97;;;11.03;84.12
4981;BME280;2507;50.392;7.482;2023-11-21T04:17:39;100301.75;;;11.00;83.82
4981;BME280;2507;50.392;7.482;2023-11-21T04:20:06;100306.88;;;11.12;84.24
4981;BME280;2507;50.392;7.482;2023-11-21T04:22:41;100314.25;;;11.07;83.78
4981;BME280;2507;50.392;7.482;2023-11-21T04:25:13;100321.06;;;10.99;84.26
4981;BME280;2507;50.392;7.482;2023-11-21T04:27:43;100326.06;;;11.13;83.74
4981;BME280;2507;50.392;7.482;2023-11-21T04:30:10;100332.31;;;11.12;83.23
4981;BME280;2507;50.392;7.482;2023-11-21T04:32:36;100336.59;;;11.13;83.68
4981;BME280;2507;50.392;7.482;2023-11-21T04:35:01;100334.31;;;11.08;83.28
4981;BME280;2507;50.392;7.482;2023-11-21T04:37:27;100340.06;;;11.13;83.94
4981;BME280;2507;50.392;7.482;2023-11-21T04:39:52;100340.53;;;11.29;82.74
4981;BME280;2507;50.392;7.482;2023-11-21T04:42:17;100353.19;;;11.36;82.28
4981;BME280;2507;50.392;7.482;2023-11-21T04:44:43;100349.97;;;11.32;81.99
4981;BME280;2507;50.392;7.482;2023-11-21T04:47:09;100349.38;;;11.28;82.43
4981;BME280;2507;50.392;7.482;2023-11-21T04:49:34;100393.09;;;11.52;81.53
4981;BME280;2507;50.392;7.482;2023-11-21T04:52:00;100364.66;;;11.46;81.07
4981;BME280;2507;50.392;7.482;2023-11-21T04:54:26;100370.16;;;11.43;80.86
4981;BME280;2507;50.392;7.482;2023-11-21T04:56:51;100370.28;;;11.30;80.88
4981;BME280;2507;50.392;7.482;2023-11-21T04:59:17;100373.25;;;11.25;82.11
4981;BME280;2507;50.392;7.482;2023-11-21T05:01:42;100375.88;;;11.14;82.05
4981;BME280;2507;50.392;7.482;2023-11-21T05:04:07;100377.63;;;10.92;81.61
4981;BME280;2507;50.392;7.482;2023-11-21T05:06:34;100374.63;;;10.85;81.55
4981;BME280;2507;50.392;7.482;2023-11-21T05:08:59;100380.38;;;10.90;81.52
4981;BME280;2507;50.392;7.482;2023-11-21T05:11:25;100392.69;;;11.01;81.13
4981;BME280;2507;50.392;7.482;2023-11-21T05:13:51;100383.75;;;11.03;80.70
4981;BME280;2507;50.392;7.482;2023-11-21T05:16:16;100389.09;;;11.02;80.51
4981;BME280;2507;50.392;7.482;2023-11-21T05:18:41;100386.59;;;11.00;79.95
4981;BME280;2507;50.392;7.482;2023-11-21T05:21:07;100392.53;;;10.91;79.82
4981;BME280;2507;50.392;7.482;2023-11-21T05:23:32;100392.66;;;10.90;80.20
4981;BME280;2507;50.392;7.482;2023-11-21T05:25:59;100397.56;;;10.94;80.67
4981;BME280;2507;50.392;7.482;2023-11-21T05:28:24;100402.13;;;11.03;80.52
4981;BME280;2507;50.392;7.482;2023-11-21T05:30:49;100401.16;;;11.04;80.86
4981;BME280;2507;50.392;7.482;2023-11-21T05:33:15;100395.06;;;11.15;80.03
4981;BME280;2507;50.392;7.482;2023-11-21T05:35:40;100394.59;;;11.10;80.54
4981;BME280;2507;50.392;7.482;2023-11-21T05:38:05;100400.22;;;11.16;80.53
4981;BME280;2507;50.392;7.482;2023-11-21T05:40:31;100398.19;;;11.20;80.93
4981;BME280;2507;50.392;7.482;2023-11-21T05:42:56;100401.66;;;11.20;80.47
4981;BME280;2507;50.392;7.482;2023-11-21T05:45:21;100400.00;;;11.19;80.93
4981;BME280;2507;50.392;7.482;2023-11-21T05:47:47;100403.09;;;11.13;81.39
4981;BME280;2507;50.392;7.482;2023-11-21T05:50:16;100403.22;;;11.23;81.52
4981;BME280;2507;50.392;7.482;2023-11-21T05:52:43;100412.66;;;11.37;80.35
4981;BME280;2507;50.392;7.482;2023-11-21T05:55:09;100406.47;;;11.49;79.47
4981;BME280;2507;50.392;7.482;2023-11-21T05:57:35;100411.94;;;11.57;79.04
4981;BME280;2507;50.392;7.482;2023-11-21T06:00:11;100411.94;;;11.57;78.90
4981;BME280;2507;50.392;7.482;2023-11-21T06:02:51;100412.91;;;11.45;79.00
4981;BME280;2507;50.392;7.482;2023-11-21T06:05:22;100420.53;;;11.48;79.17
4981;BME280;2507;50.392;7.482;2023-11-21T06:07:51;100416.84;;;11.39;78.89
4981;BME280;2507;50.392;7.482;2023-11-21T06:10:19;100423.06;;;11.38;79.34
4981;BME280;2507;50.392;7.482;2023-11-21T06:12:44;100442.16;;;11.40;79.50
4981;BME280;2507;50.392;7.482;2023-11-21T06:15:10;100435.25;;;11.39;79.68
4981;BME280;2507;50.392;7.482;2023-11-21T06:17:39;100436.56;;;11.45;79.67
4981;BME280;2507;50.392;7.482;2023-11-21T06:20:09;100440.38;;;11.52;79.68
4981;BME280;2507;50.392;7.482;2023-11-21T06:22:38;100440.72;;;11.58;78.79
4981;BME280;2507;50.392;7.482;2023-11-21T06:25:05;100445.88;;;11.49;78.47
4981;BME280;2507;50.392;7.482;2023-11-21T06:27:34;100459.97;;;11.48;78.83
4981;BME280;2507;50.392;7.482;2023-11-21T06:29:59;100462.97;;;11.54;78.77
4981;BME280;2507;50.392;7.482;2023-11-21T06:32:25;100462.38;;;11.62;78.27
4981;BME280;2507;50.392;7.482;2023-11-21T06:34:51;100489.31;;;11.65;77.97
4981;BME280;2507;50.392;7.482;2023-11-21T06:37:19;100474.59;;;11.74;78.19
4981;BME280;2507;50.392;7.482;2023-11-21T06:39:48;100478.66;;;11.67;77.63
4981;BME280;2507;50.392;7.482;2023-11-21T06:42:13;100482.25;;;11.77;77.57
4981;BME280;2507;50.392;7.482;2023-11-21T06:44:40;100483.50;;;11.60;77.43
4981;BME280;2507;50.392;7.482;2023-11-21T06:47:06;100490.31;;;11.52;77.76
4981;BME280;2507;50.392;7.482;2023-11-21T06:49:32;100484.09;;;11.42;78.08
4981;BME280;2507;50.392;7.482;2023-11-21T06:51:57;100485.84;;;11.30;79.09
4981;BME280;2507;50.392;7.482;2023-11-21T06:54:23;100498.03;;;11.42;78.40
4981;BME280;2507;50.392;7.482;2023-11-21T06:56:49;100495.38;;;11.31;78.73
4981;BME280;2507;50.392;7.482;2023-11-21T06:59:15;100495.63;;;11.28;79.56
4981;BME280;2507;50.392;7.482;2023-11-21T07:01:40;100500.88;;;11.28;78.93
4981;BME280;2507;50.392;7.482;2023-11-21T07:04:06;100503.41;;;11.29;78.99
4981;BME280;2507;50.392;7.482;2023-11-21T07:06:32;100517.72;;;11.25;79.28
4981;BME280;2507;50.392;7.482;2023-11-21T07:08:57;100513.69;;;11.32;78.90
4981;BME280;2507;50.392;7.482;2023-11-21T07:11:23;100510.56;;;11.27;78.64
4981;BME280;2507;50.392;7.482;2023-11-21T07:13:49;100516.28;;;11.21;78.67
4981;BME280;2507;50.392;7.482;2023-11-21T07:16:14;100519.84;;;11.20;79.01
4981;BME280;2507;50.392;7.482;2023-11-21T07:18:40;100518.44;;;11.27;78.54
4981;BME280;2507;50.392;7.482;2023-11-21T07:21:06;100533.09;;;11.19;78.38
4981;BME280;2507;50.392;7.482;2023-11-21T07:23:31;100538.22;;;11.20;78.46
4981;BME280;2507;50.392;7.482;2023-11-21T07:25:56;100552.09;;;11.22;78.54
4981;BME280;2507;50.392;7.482;2023-11-21T07:28:23;100561.53;;;11.25;78.60
4981;BME280;2507;50.392;7.482;2023-11-21T07:30:49;100556.94;;;11.40;77.74
4981;BME280;2507;50.392;7.482;2023-11-21T07:33:14;100560.78;;;11.47;77.46
4981;BME280;2507;50.392;7.482;2023-11-21T07:35:39;100565.66;;;11.51;77.56
4981;BME280;2507;50.392;7.482;2023-11-21T07:38:04;100571.91;;;11.50;77.61
4981;BME280;2507;50.392;7.482;2023-11-21T07:40:30;100573.22;;;11.56;77.08
4981;BME280;2507;50.392;7.482;2023-11-21T07:42:55;100571.59;;;11.66;77.10
4981;BME280;2507;50.392;7.482;2023-11-21T07:45:22;100578.06;;;11.73;76.75
4981;BME280;2507;50.392;7.482;2023-11-21T07:47:47;100579.16;;;11.70;76.72
4981;BME280;2507;50.392;7.482;2023-11-21T07:50:13;100587.41;;;11.77;76.15
4981;BME280;2507;50.392;7.482;2023-11-21T07:52:38;100589.47;;;11.61;76.52
4981;BME280;2507;50.392;7.482;2023-11-21T07:55:05;100593.75;;;11.51;77.04
4981;BME280;2507;50.392;7.482;2023-11-21T07:57:30;100593.03;;;11.49;77.37
4981;BME280;2507;50.392;7.482;2023-11-21T07:59:56;100594.63;;;11.62;76.66
4981;BME280;2507;50.392;7.482;2023-11-21T08:02:21;100600.00;;;11.61;76.34
4981;BME280;2507;50.392;7.482;2023-11-21T08:04:46;100599.94;;;11.73;76.80
4981;BME280;2507;50.392;7.482;2023-11-21T08:07:15;100613.00;;;11.97;76.40
4981;BME280;2507;50.392;7.482;2023-11-21T08:09:40;100615.91;;;12.16;75.24
4981;BME280;2507;50.392;7.482;2023-11-21T08:12:06;100616.41;;;12.21;74.77
4981;BME280;2507;50.392;7.482;2023-11-21T08:14:32;100625.94;;;12.11;74.65
4981;BME280;2507;50.392;7.482;2023-11-21T08:16:58;100623.06;;;12.03;74.22
4981;BME280;2507;50.392;7.482;2023-11-21T08:19:24;100620.41;;;11.81;75.83
4981;BME280;2507;50.392;7.482;2023-11-21T08:21:50;100619.81;;;11.54;76.43
4981;BME280;2507;50.392;7.482;2023-11-21T08:24:15;100612.38;;;11.48;77.99
4981;BME280;2507;50.392;7.482;2023-11-21T08:26:41;100627.44;;;11.57;77.94
4981;BME280;2507;50.392;7.482;2023-11-21T08:29:06;100617.91;;;11.56;77.98
4981;BME280;2507;50.392;7.482;2023-11-21T08:31:34;100618.72;;;11.80;78.01
4981;BME280;2507;50.392;7.482;2023-11-21T08:33:59;100622.19;;;11.80;76.33
4981;BME280;2507;50.392;7.482;2023-11-21T08:36:27;100626.81;;;11.77;77.46
4981;BME280;2507;50.392;7.482;2023-11-21T08:38:52;100627.06;;;11.74;76.75
4981;BME280;2507;50.392;7.482;2023-11-21T08:41:17;100629.25;;;11.80;77.46
4981;BME280;2507;50.392;7.482;2023-11-21T08:43:47;100624.34;;;11.86;76.94
4981;BME280;2507;50.392;7.482;2023-11-21T08:46:13;100630.91;;;11.81;76.81
4981;BME280;2507;50.392;7.482;2023-11-21T08:48:38;100621.38;;;12.02;76.17
4981;BME280;2507;50.392;7.482;2023-11-21T08:51:06;100634.53;;;12.02;76.01
4981;BME280;2507;50.392;7.482;2023-11-21T08:53:31;100636.31;;;11.90;75.81
4981;BME280;2507;50.392;7.482;2023-11-21T08:55:57;100638.91;;;11.79;76.13
4981;BME280;2507;50.392;7.482;2023-11-21T08:58:22;100635.19;;;11.71;76.19
4981;BME280;2507;50.392;7.482;2023-11-21T09:00:47;100643.72;;;11.85;75.96
4981;BME280;2507;50.392;7.482;2023-11-21T09:03:13;100651.50;;;11.87;75.43
4981;BME280;2507;50.392;7.482;2023-11-21T09:05:39;100654.72;;;11.90;76.17
4981;BME280;2507;50.392;7.482;2023-11-21T09:08:04;100656.38;;;11.91;75.48
4981;BME280;2507;50.392;7.482;2023-11-21T09:10:29;100654.81;;;11.78;75.57
4981;BME280;2507;50.392;7.482;2023-11-21T09:12:55;100661.97;;;11.76;76.72
4981;BME280;2507;50.392;7.482;2023-11-21T09:15:20;100665.25;;;11.90;76.08
4981;BME280;2507;50.392;7.482;2023-11-21T09:17:45;100668.81;;;11.89;76.11
4981;BME280;2507;50.392;7.482;2023-11-21T09:20:11;100673.34;;;11.87;76.06
4981;BME280;2507;50.392;7.482;2023-11-21T09:22:36;100676.94;;;11.86;76.80
4981;BME280;2507;50.392;7.482;2023-11-21T09:25:02;100676.56;;;11.80;75.97
4981;BME280;2507;50.392;7.482;2023-11-21T09:27:30;100682.59;;;11.69;76.24
4981;BME280;2507;50.392;7.482;2023-11-21T09:29:56;100690.03;;;11.75;76.72
4981;BME280;2507;50.392;7.482;2023-11-21T09:32:23;100682.28;;;11.74;76.46
4981;BME280;2507;50.392;7.482;2023-11-21T09:34:49;100692.47;;;11.89;75.92
4981;BME280;2507;50.392;7.482;2023-11-21T09:37:15;100689.53;;;11.94;74.86
4981;BME280;2507;50.392;7.482;2023-11-21T09:39:40;100701.25;;;12.01;75.02
4981;BME280;2507;50.392;7.482;2023-11-21T09:42:13;100708.94;;;12.15;75.17
4981;BME280;2507;50.392;7.482;2023-11-21T09:47:14;100720.59;;;12.46;72.93
4981;BME280;2507;50.392;7.482;2023-11-21T09:49:43;100721.81;;;12.64;73.09
4981;BME280;2507;50.392;7.482;2023-11-21T09:52:22;100713.22;;;13.06;71.66
4981;BME280;2507;50.392;7.482;2023-11-21T09:54:50;100718.84;;;13.23;70.01
4981;BME280;2507;50.392;7.482;2023-11-21T09:57:17;100715.69;;;13.29;69.18
4981;BME280;2507;50.392;7.482;2023-11-21T09:59:45;100716.53;;;13.30;69.38
4981;BME280;2507;50.392;7.482;2023-11-21T10:02:10;100716.22;;;13.55;68.62
4981;BME280;2507;50.392;7.482;2023-11-21T10:04:38;100718.91;;;13.33;68.21
4981;BME280;2507;50.392;7.482;2023-11-21T10:07:04;100715.66;;;13.41;68.92
4981;BME280;2507;50.392;7.482;2023-11-21T10:09:34;100729.47;;;13.33;68.26
4981;BME280;2507;50.392;7.482;2023-11-21T10:12:00;100721.91;;;13.40;67.87
4981;BME280;2507;50.392;7.482;2023-11-21T10:14:28;100732.22;;;13.31;67.67
4981;BME280;2507;50.392;7.482;2023-11-21T10:16:55;100733.09;;;13.21;68.79
4981;BME280;2507;50.392;7.482;2023-11-21T10:19:22;100736.28;;;13.36;68.25
4981;BME280;2507;50.392;7.482;2023-11-21T10:21:49;100734.53;;;13.25;68.72
4981;BME280;2507;50.392;7.482;2023-11-21T10:24:16;100726.25;;;13.29;68.34
4981;BME280;2507;50.392;7.482;2023-11-21T10:26:43;100725.13;;;13.54;67.57
4981;BME280;2507;50.392;7.482;2023-11-21T10:29:08;100724.84;;;13.57;67.21
4981;BME280;2507;50.392;7.482;2023-11-21T10:31:34;100733.06;;;13.43;66.80
4981;BME280;2507;50.392;7.482;2023-11-21T10:34:15;100734.53;;;13.25;67.35
4981;BME280;2507;50.392;7.482;2023-11-21T10:36:40;100737.75;;;12.95;68.97
4981;BME280;2507;50.392;7.482;2023-11-21T10:39:06;100738.94;;;12.91;70.04
4981;BME280;2507;50.392;7.482;2023-11-21T10:41:32;100743.25;;;12.81;69.12
4981;BME280;2507;50.392;7.482;2023-11-21T10:43:57;100731.28;;;12.66;70.35
4981;BME280;2507;50.392;7.482;2023-11-21T10:46:23;100735.81;;;12.53;70.31
4981;BME280;2507;50.392;7.482;2023-11-21T10:48:52;100735.34;;;12.70;69.84
4981;BME280;2507;50.392;7.482;2023-11-21T10:51:20;100736.53;;;12.66;70.32
4981;BME280;2507;50.392;7.482;2023-11-21T10:53:45;100743.00;;;12.73;70.96
4981;BME280;2507;50.392;7.482;2023-11-21T10:56:14;100745.66;;;12.84;71.39
4981;BME280;2507;50.392;7.482;2023-11-21T10:58:43;100746.03;;;12.80;71.00
4981;BME280;2507;50.392;7.482;2023-11-21T11:01:09;100743.13;;;12.61;69.32
4981;BME280;2507;50.392;7.482;2023-11-21T11:03:37;100749.81;;;12.54;69.29
4981;BME280;2507;50.392;7.482;2023-11-21T11:06:04;100740.59;;;12.48;70.07
4981;BME280;2507;50.392;7.482;2023-11-21T11:08:30;100756.72;;;12.44;70.64
4981;BME280;2507;50.392;7.482;2023-11-21T11:10:56;100751.09;;;12.37;70.71
4981;BME280;2507;50.392;7.482;2023-11-21T11:13:23;100744.03;;;12.38;70.47
4981;BME280;2507;50.392;7.482;2023-11-21T11:15:50;100743.22;;;12.48;71.67
4981;BME280;2507;50.392;7.482;2023-11-21T11:18:15;100743.72;;;12.64;71.36
4981;BME280;2507;50.392;7.482;2023-11-21T11:20:42;100738.13;;;12.80;70.05
4981;BME280;2507;50.392;7.482;2023-11-21T11:28:15;100743.72;;;12.86;69.21
4981;BME280;2507;50.392;7.482;2023-11-21T11:36:02;100749.63;;;13.12;68.53
4981;BME280;2507;50.392;7.482;2023-11-21T11:38:32;100751.28;;;13.13;67.64
4981;BME280;2507;50.392;7.482;2023-11-21T11:41:01;100751.41;;;13.11;67.82
4981;BME280;2507;50.392;7.482;2023-11-21T11:43:29;100754.44;;;13.07;67.83
4981;BME280;2507;50.392;7.482;2023-11-21T11:45:56;100755.38;;;13.06;67.06
4981;BME280;2507;50.392;7.482;2023-11-21T11:48:22;100755.22;;;12.96;66.78
4981;BME280;2507;50.392;7.482;2023-11-21T11:51:10;100759.19;;;12.91;66.63
4981;BME280;2507;50.392;7.482;2023-11-21T11:53:43;100761.44;;;12.84;66.53
4981;BME280;2507;50.392;7.482;2023-11-21T11:56:22;100769.09;;;12.87;68.38
4981;BME280;2507;50.392;7.482;2023-11-21T11:58:51;100763.50;;;12.92;68.07
4981;BME280;2507;50.392;7.482;2023-11-21T12:01:18;100763.38;;;12.93;67.65
4981;BME280;2507;50.392;7.482;2023-11-21T12:03:44;100766.88;;;13.05;67.83
4981;BME280;2507;50.392;7.482;2023-11-21T12:06:10;100761.44;;;12.95;67.91
4981;BME280;2507;50.392;7.482;2023-11-21T12:08:36;100759.53;;;12.86;68.95
4981;BME280;2507;50.392;7.482;2023-11-21T12:11:02;100763.00;;;12.87;68.72
4981;BME280;2507;50.392;7.482;2023-11-21T12:13:28;100758.69;;;12.86;69.06
4981;BME280;2507;50.392;7.482;2023-11-21T12:15:53;100769.47;;;12.83;68.62
4981;BME280;2507;50.392;7.482;2023-11-21T12:18:20;100771.72;;;12.87;68.99
4981;BME280;2507;50.392;7.482;2023-11-21T12:20:46;100763.50;;;12.92;68.54
4981;BME280;2507;50.392;7.482;2023-11-21T12:23:14;100767.91;;;12.80;68.77
4981;BME280;2507;50.392;7.482;2023-11-21T12:25:42;100764.09;;;12.84;69.46
4981;BME280;2507;50.392;7.482;2023-11-21T12:28:08;100769.94;;;12.99;69.18
4981;BME280;2507;50.392;7.482;2023-11-21T12:30:34;100764.38;;;13.14;67.55
4981;BME280;2507;50.392;7.482;2023-11-21T12:33:03;100770.84;;;13.10;67.61
4981;BME280;2507;50.392;7.482;2023-11-21T12:35:34;100766.63;;;13.08;67.90
4981;BME280;2507;50.392;7.482;2023-11-21T12:38:00;100775.13;;;13.11;68.38
4981;BME280;2507;50.392;7.482;2023-11-21T12:40:28;100777.88;;;13.21;68.53
4981;BME280;2507;50.392;7.482;2023-11-21T12:42:57;100783.28;;;13.30;68.15
4981;BME280;2507;50.392;7.482;2023-11-21T12:45:25;100785.19;;;13.40;68.10
4981;BME280;2507;50.392;7.482;2023-11-21T12:47:51;100793.09;;;13.40;67.19
4981;BME280;2507;50.392;7.482;2023-11-21T12:50:19;100797.22;;;13.64;67.49
4981;BME280;2507;50.392;7.482;2023-11-21T12:52:49;100795.44;;;13.65;66.88
4981;BME280;2507;50.392;7.482;2023-11-21T12:55:21;100806.44;;;13.70;66.74
4981;BME280;2507;50.392;7.482;2023-11-21T12:57:51;100799.44;;;13.37;66.40
4981;BME280;2507;50.392;7.482;2023-11-21T13:00:17;100804.56;;;12.94;66.05
4981;BME280;2507;50.392;7.482;2023-11-21T13:02:53;100807.28;;;12.71;67.27
4981;BME280;2507;50.392;7.482;2023-11-21T13:05:38;100810.50;;;12.63;67.86
4981;BME280;2507;50.392;7.482;2023-11-21T13:08:08;100809.31;;;12.67;68.24
4981;BME280;2507;50.392;7.482;2023-11-21T13:10:35;100815.44;;;12.79;69.44
4981;BME280;2507;50.392;7.482;2023-11-21T13:13:03;100808.38;;;12.90;69.06
4981;BME280;2507;50.392;7.482;2023-11-21T13:15:31;100814.13;;;12.84;69.34
4981;BME280;2507;50.392;7.482;2023-11-21T13:17:58;100816.53;;;12.98;69.72
4981;BME280;2507;50.392;7.482;2023-11-21T13:20:24;100811.41;;;13.08;68.51